sensor_id;sensor_type;location;lat;lon;timestamp;P1;durP1;ratioP1;P2;durP2;ratioP2
34030;SDS011;20319;28.466;-16.274;2023-08-17T00:02:13;14.65;;;4.57;;
34030;SDS011;20319;28.466;-16.274;2023-08-17T00:04:39;14.70;;;4.30;;
34030;SDS011;20319;28.466;-16.274;2023-08-17T00:07:05;12.98;;;4.68;;
34030;SDS011;20319;28.466;-16.274;2023-08-17T00:09:31;12.88;;;4.10;;
34030;SDS011;20319;28.466;-16.274;2023-08-17T00:11:57;13.48;;;4.15;;
34030;SDS011;20319;28.466;-16.274;2023-08-17T00:14:23;14.30;;;4.70;;
34030;SDS011;20319;28.466;-16.274;2023-08-17T00:16:49;12.30;;;3.80;;
34030;SDS011;20319;28.466;-16.274;2023-08-17T00:19:15;13.55;;;4.03;;
34030;SDS011;20319;28.466;-16.274;2023-08-17T00:21:42;16.38;;;4.38;;
34030;SDS011;20319;28.466;-16.274;2023-08-17T00:24:07;16.58;;;4.43;;
34030;SDS011;20319;28.466;-16.274;2023-08-17T00:26:33;14.77;;;4.38;;
34030;SDS011;20319;28.466;-16.274;2023-08-17T00:28:59;15.45;;;4.25;;
34030;SDS011;20319;28.466;-16.274;2023-08-17T00:31:24;13.55;;;4.25;;
34030;SDS011;20319;28.466;-16.274;2023-08-17T00:33:50;13.93;;;4.25;;
34030;SDS011;20319;28.466;-16.274;2023-08-17T00:36:16;11.73;;;4.03;;
34030;SDS011;20319;28.466;-16.274;2023-08-17T00:38:41;14.38;;;3.75;;
34030;SDS011;20319;28.466;-16.274;2023-08-17T00:41:07;18.30;;;4.60;;
34030;SDS011;20319;28.466;-16.274;2023-08-17T00:43:32;10.63;;;3.97;;
34030;SDS011;20319;28.466;-16.274;2023-08-17T00:45:58;11.40;;;4.20;;
34030;SDS011;20319;28.466;-16.274;2023-08-17T00:48:25;15.07;;;4.25;;
34030;SDS011;20319;28.466;-16.274;2023-08-17T00:50:52;14.85;;;3.97;;
34030;SDS011;20319;28.466;-16.274;2023-08-17T00:53:18;11.38;;;4.28;;
34030;SDS011;20319;28.466;-16.274;2023-08-17T00:55:45;11.32;;;3.80;;
34030;SDS011;20319;28.466;-16.274;2023-08-17T00:58:12;19.10;;;3.97;;
34030;SDS011;20319;28.466;-16.274;2023-08-17T01:00:37;16.08;;;4.55;;
34030;SDS011;20319;28.466;-16.274;2023-08-17T01:03:03;18.05;;;4.20;;
34030;SDS011;20319;28.466;-16.274;2023-08-17T01:05:29;14.02;;;4.70;;
34030;SDS011;20319;28.466;-16.274;2023-08-17T01:07:57;14.98;;;4.50;;
34030;SDS011;20319;28.466;-16.274;2023-08-17T01:10:23;20.23;;;4.65;;
34030;SDS011;20319;28.466;-16.274;2023-08-17T01:13:07;13.43;;;3.85;;
34030;SDS011;20319;28.466;-16.274;2023-08-17T01:20:56;16.30;;;4.15;;
34030;SDS011;20319;28.466;-16.274;2023-08-17T01:23:22;13.88;;;4.30;;
34030;SDS011;20319;28.466;-16.274;2023-08-17T01:25:48;20.77;;;4.82;;
34030;SDS011;20319;28.466;-16.274;2023-08-17T01:28:14;15.00;;;5.00;;
34030;SDS011;20319;28.466;-16.274;2023-08-17T01:30:45;14.65;;;4.25;;
34030;SDS011;20319;28.466;-16.274;2023-08-17T01:33:32;15.07;;;4.53;;
34030;SDS011;20319;28.466;-16.274;2023-08-17T01:36:19;16.10;;;4.78;;
34030;SDS011;20319;28.466;-16.274;2023-08-17T01:38:51;14.15;;;4.32;;
34030;SDS011;20319;28.466;-16.274;2023-08-17T01:41:20;16.70;;;4.50;;
34030;SDS011;20319;28.466;-16.274;2023-08-17T01:43:48;16.10;;;4.78;;
34030;SDS011;20319;28.466;-16.274;2023-08-17T01:46:15;12.55;;;4.28;;
34030;SDS011;20319;28.466;-16.274;2023-08-17T01:48:42;17.40;;;4.68;;
34030;SDS011;20319;28.466;-16.274;2023-08-17T01:51:09;18.42;;;5.03;;
34030;SDS011;20319;28.466;-16.274;2023-08-17T01:53:36;14.65;;;5.32;;
34030;SDS011;20319;28.466;-16.274;2023-08-17T01:56:01;17.92;;;4.60;;
34030;SDS011;20319;28.466;-16.274;2023-08-17T01:58:27;16.67;;;4.57;;
34030;SDS011;20319;28.466;-16.274;2023-08-17T02:00:52;13.18;;;4.10;;
34030;SDS011;20319;28.466;-16.274;2023-08-17T02:03:18;14.70;;;4.70;;
34030;SDS011;20319;28.466;-16.274;2023-08-17T02:05:44;16.17;;;4.70;;
34030;SDS011;20319;28.466;-16.274;2023-08-17T02:08:10;15.63;;;4.45;;
34030;SDS011;20319;28.466;-16.274;2023-08-17T02:10:36;15.13;;;4.60;;
34030;SDS011;20319;28.466;-16.274;2023-08-17T02:13:02;14.60;;;4.18;;
34030;SDS011;20319;28.466;-16.274;2023-08-17T02:15:28;16.50;;;4.68;;
34030;SDS011;20319;28.466;-16.274;2023-08-17T02:17:53;15.77;;;5.30;;
34030;SDS011;20319;28.466;-16.274;2023-08-17T02:20:19;15.15;;;4.25;;
34030;SDS011;20319;28.466;-16.274;2023-08-17T02:22:44;17.02;;;4.70;;
34030;SDS011;20319;28.466;-16.274;2023-08-17T02:25:10;16.48;;;5.25;;
34030;SDS011;20319;28.466;-16.274;2023-08-17T02:27:35;14.65;;;4.72;;
34030;SDS011;20319;28.466;-16.274;2023-08-17T02:30:02;13.23;;;4.63;;
34030;SDS011;20319;28.466;-16.274;2023-08-17T02:32:31;14.27;;;4.28;;
34030;SDS011;20319;28.466;-16.274;2023-08-17T02:34:56;14.00;;;5.20;;
34030;SDS011;20319;28.466;-16.274;2023-08-17T02:37:22;13.93;;;4.07;;
34030;SDS011;20319;28.466;-16.274;2023-08-17T02:39:48;17.00;;;4.53;;
34030;SDS011;20319;28.466;-16.274;2023-08-17T02:42:13;14.00;;;4.53;;
34030;SDS011;20319;28.466;-16.274;2023-08-17T02:44:39;15.48;;;5.03;;
34030;SDS011;20319;28.466;-16.274;2023-08-17T02:47:04;18.58;;;4.78;;
34030;SDS011;20319;28.466;-16.274;2023-08-17T02:49:30;15.52;;;4.40;;
34030;SDS011;20319;28.466;-16.274;2023-08-17T02:51:56;15.80;;;4.47;;
34030;SDS011;20319;28.466;-16.274;2023-08-17T02:54:21;13.15;;;4.35;;
34030;SDS011;20319;28.466;-16.274;2023-08-17T02:56:47;15.60;;;4.78;;
34030;SDS011;20319;28.466;-16.274;2023-08-17T02:59:13;15.30;;;4.65;;
34030;SDS011;20319;28.466;-16.274;2023-08-17T03:01:38;11.40;;;4.32;;
34030;SDS011;20319;28.466;-16.274;2023-08-17T03:04:04;13.75;;;4.00;;
34030;SDS011;20319;28.466;-16.274;2023-08-17T03:06:30;12.38;;;4.28;;
34030;SDS011;20319;28.466;-16.274;2023-08-17T03:08:55;13.50;;;3.97;;
34030;SDS011;20319;28.466;-16.274;2023-08-17T03:11:21;15.68;;;4.35;;
34030;SDS011;20319;28.466;-16.274;2023-08-17T03:13:47;12.40;;;4.07;;
34030;SDS011;20319;28.466;-16.274;2023-08-17T03:16:14;22.17;;;4.90;;
34030;SDS011;20319;28.466;-16.274;2023-08-17T03:18:40;15.57;;;4.40;;
34030;SDS011;20319;28.466;-16.274;2023-08-17T03:21:06;15.43;;;4.32;;
34030;SDS011;20319;28.466;-16.274;2023-08-17T03:23:32;14.07;;;4.30;;
34030;SDS011;20319;28.466;-16.274;2023-08-17T03:25:58;14.73;;;4.60;;
34030;SDS011;20319;28.466;-16.274;2023-08-17T03:28:23;12.45;;;4.53;;
34030;SDS011;20319;28.466;-16.274;2023-08-17T03:30:54;15.23;;;4.38;;
34030;SDS011;20319;28.466;-16.274;2023-08-17T03:33:20;13.40;;;4.45;;
34030;SDS011;20319;28.466;-16.274;2023-08-17T03:35:46;13.55;;;4.03;;
34030;SDS011;20319;28.466;-16.274;2023-08-17T03:38:12;17.38;;;3.88;;
34030;SDS011;20319;28.466;-16.274;2023-08-17T03:40:38;13.13;;;4.22;;
34030;SDS011;20319;28.466;-16.274;2023-08-17T03:43:04;16.52;;;4.30;;
34030;SDS011;20319;28.466;-16.274;2023-08-17T03:45:30;17.52;;;4.72;;
34030;SDS011;20319;28.466;-16.274;2023-08-17T03:47:56;12.43;;;4.15;;
34030;SDS011;20319;28.466;-16.274;2023-08-17T03:50:22;8.63;;;3.97;;
34030;SDS011;20319;28.466;-16.274;2023-08-17T03:52:47;12.18;;;3.90;;
34030;SDS011;20319;28.466;-16.274;2023-08-17T03:55:13;10.48;;;3.70;;
34030;SDS011;20319;28.466;-16.274;2023-08-17T03:57:38;11.98;;;4.10;;
34030;SDS011;20319;28.466;-16.274;2023-08-17T04:00:04;11.65;;;3.53;;
34030;SDS011;20319;28.466;-16.274;2023-08-17T04:02:31;16.60;;;4.30;;
34030;SDS011;20319;28.466;-16.274;2023-08-17T04:04:57;10.45;;;3.60;;
34030;SDS011;20319;28.466;-16.274;2023-08-17T04:07:22;14.88;;;3.72;;
34030;SDS011;20319;28.466;-16.274;2023-08-17T04:09:49;14.57;;;4.15;;
34030;SDS011;20319;28.466;-16.274;2023-08-17T04:12:14;12.40;;;4.13;;
34030;SDS011;20319;28.466;-16.274;2023-08-17T04:14:40;18.10;;;4.97;;
34030;SDS011;20319;28.466;-16.274;2023-08-17T04:17:06;13.63;;;4.13;;
34030;SDS011;20319;28.466;-16.274;2023-08-17T04:19:32;15.15;;;4.47;;
34030;SDS011;20319;28.466;-16.274;2023-08-17T04:21:57;12.82;;;3.70;;
34030;SDS011;20319;28.466;-16.274;2023-08-17T04:24:23;13.18;;;3.97;;
34030;SDS011;20319;28.466;-16.274;2023-08-17T04:26:49;14.02;;;4.13;;
34030;SDS011;20319;28.466;-16.274;2023-08-17T04:29:15;16.88;;;4.25;;
34030;SDS011;20319;28.466;-16.274;2023-08-17T04:31:40;12.25;;;4.13;;
34030;SDS011;20319;28.466;-16.274;2023-08-17T04:34:06;15.15;;;3.65;;
34030;SDS011;20319;28.466;-16.274;2023-08-17T04:36:32;14.40;;;4.00;;
34030;SDS011;20319;28.466;-16.274;2023-08-17T04:38:57;13.32;;;4.20;;
34030;SDS011;20319;28.466;-16.274;2023-08-17T04:41:23;12.45;;;4.22;;
34030;SDS011;20319;28.466;-16.274;2023-08-17T04:43:49;20.35;;;4.45;;
34030;SDS011;20319;28.466;-16.274;2023-08-17T04:46:14;13.00;;;3.83;;
34030;SDS011;20319;28.466;-16.274;2023-08-17T04:48:40;14.50;;;4.18;;
34030;SDS011;20319;28.466;-16.274;2023-08-17T04:51:06;9.95;;;3.63;;
34030;SDS011;20319;28.466;-16.274;2023-08-17T04:53:31;10.73;;;3.78;;
34030;SDS011;20319;28.466;-16.274;2023-08-17T04:55:58;14.05;;;3.70;;
34030;SDS011;20319;28.466;-16.274;2023-08-17T04:58:24;15.70;;;4.28;;
34030;SDS011;20319;28.466;-16.274;2023-08-17T05:00:49;17.73;;;4.30;;
34030;SDS011;20319;28.466;-16.274;2023-08-17T05:03:16;12.60;;;4.15;;
34030;SDS011;20319;28.466;-16.274;2023-08-17T05:05:41;11.63;;;4.18;;
34030;SDS011;20319;28.466;-16.274;2023-08-17T05:08:07;13.55;;;4.20;;
34030;SDS011;20319;28.466;-16.274;2023-08-17T05:10:33;14.73;;;4.70;;
34030;SDS011;20319;28.466;-16.274;2023-08-17T05:12:58;13.00;;;4.50;;
34030;SDS011;20319;28.466;-16.274;2023-08-17T05:15:24;12.02;;;3.92;;
34030;SDS011;20319;28.466;-16.274;2023-08-17T05:17:50;12.30;;;3.97;;
34030;SDS011;20319;28.466;-16.274;2023-08-17T05:20:15;13.50;;;4.57;;
34030;SDS011;20319;28.466;-16.274;2023-08-17T05:22:41;14.93;;;4.40;;
34030;SDS011;20319;28.466;-16.274;2023-08-17T05:25:07;10.85;;;4.10;;
34030;SDS011;20319;28.466;-16.274;2023-08-17T05:27:32;13.50;;;4.15;;
34030;SDS011;20319;28.466;-16.274;2023-08-17T05:29:58;14.48;;;4.03;;
34030;SDS011;20319;28.466;-16.274;2023-08-17T05:32:24;11.13;;;4.10;;
34030;SDS011;20319;28.466;-16.274;2023-08-17T05:34:50;12.77;;;4.07;;
34030;SDS011;20319;28.466;-16.274;2023-08-17T05:37:15;11.25;;;4.40;;
34030;SDS011;20319;28.466;-16.274;2023-08-17T05:39:41;10.27;;;3.42;;
34030;SDS011;20319;28.466;-16.274;2023-08-17T05:42:07;12.05;;;3.70;;
34030;SDS011;20319;28.466;-16.274;2023-08-17T05:44:35;19.40;;;4.78;;
34030;SDS011;20319;28.466;-16.274;2023-08-17T05:47:00;13.07;;;4.45;;
34030;SDS011;20319;28.466;-16.274;2023-08-17T05:49:26;11.02;;;4.18;;
34030;SDS011;20319;28.466;-16.274;2023-08-17T05:51:51;15.07;;;4.15;;
34030;SDS011;20319;28.466;-16.274;2023-08-17T05:54:17;12.52;;;4.10;;
34030;SDS011;20319;28.466;-16.274;2023-08-17T05:56:43;14.80;;;4.25;;
34030;SDS011;20319;28.466;-16.274;2023-08-17T05:59:11;11.60;;;4.13;;
34030;SDS011;20319;28.466;-16.274;2023-08-17T06:01:37;10.32;;;3.63;;
34030;SDS011;20319;28.466;-16.274;2023-08-17T06:04:03;16.45;;;4.25;;
34030;SDS011;20319;28.466;-16.274;2023-08-17T06:06:30;14.65;;;3.95;;
34030;SDS011;20319;28.466;-16.274;2023-08-17T06:08:55;13.95;;;4.18;;
34030;SDS011;20319;28.466;-16.274;2023-08-17T06:11:21;15.05;;;4.10;;
34030;SDS011;20319;28.466;-16.274;2023-08-17T06:13:48;9.23;;;3.70;;
34030;SDS011;20319;28.466;-16.274;2023-08-17T06:16:13;11.25;;;3.60;;
34030;SDS011;20319;28.466;-16.274;2023-08-17T06:18:39;11.13;;;3.95;;
34030;SDS011;20319;28.466;-16.274;2023-08-17T06:21:05;9.95;;;3.67;;
34030;SDS011;20319;28.466;-16.274;2023-08-17T06:23:31;12.00;;;4.00;;
34030;SDS011;20319;28.466;-16.274;2023-08-17T06:25:57;12.45;;;3.60;;
34030;SDS011;20319;28.466;-16.274;2023-08-17T06:28:24;10.23;;;3.40;;
34030;SDS011;20319;28.466;-16.274;2023-08-17T06:30:53;14.52;;;3.70;;
34030;SDS011;20319;28.466;-16.274;2023-08-17T06:33:20;11.10;;;3.63;;
34030;SDS011;20319;28.466;-16.274;2023-08-17T06:35:47;10.90;;;3.58;;
34030;SDS011;20319;28.466;-16.274;2023-08-17T06:38:13;11.15;;;4.00;;
34030;SDS011;20319;28.466;-16.274;2023-08-17T06:40:38;9.98;;;4.00;;
34030;SDS011;20319;28.466;-16.274;2023-08-17T06:43:04;12.57;;;3.80;;
34030;SDS011;20319;28.466;-16.274;2023-08-17T06:45:33;12.60;;;4.18;;
34030;SDS011;20319;28.466;-16.274;2023-08-17T06:47:58;11.20;;;4.78;;
34030;SDS011;20319;28.466;-16.274;2023-08-17T06:50:24;16.65;;;4.40;;
34030;SDS011;20319;28.466;-16.274;2023-08-17T06:52:51;14.70;;;3.80;;
34030;SDS011;20319;28.466;-16.274;2023-08-17T06:55:17;13.73;;;4.43;;
34030;SDS011;20319;28.466;-16.274;2023-08-17T06:57:43;10.50;;;3.80;;
34030;SDS011;20319;28.466;-16.274;2023-08-17T07:00:09;15.05;;;4.45;;
34030;SDS011;20319;28.466;-16.274;2023-08-17T07:02:36;12.98;;;4.47;;
34030;SDS011;20319;28.466;-16.274;2023-08-17T07:05:02;16.65;;;4.07;;
34030;SDS011;20319;28.466;-16.274;2023-08-17T07:07:31;15.48;;;4.00;;
34030;SDS011;20319;28.466;-16.274;2023-08-17T07:10:00;11.98;;;4.32;;
34030;SDS011;20319;28.466;-16.274;2023-08-17T07:12:26;15.15;;;3.70;;
34030;SDS011;20319;28.466;-16.274;2023-08-17T07:14:53;11.18;;;3.70;;
34030;SDS011;20319;28.466;-16.274;2023-08-17T07:17:18;15.50;;;3.60;;
34030;SDS011;20319;28.466;-16.274;2023-08-17T07:19:44;10.90;;;3.63;;
34030;SDS011;20319;28.466;-16.274;2023-08-17T07:22:10;13.65;;;4.07;;
34030;SDS011;20319;28.466;-16.274;2023-08-17T07:24:35;15.07;;;4.30;;
34030;SDS011;20319;28.466;-16.274;2023-08-17T07:27:01;13.00;;;3.90;;
34030;SDS011;20319;28.466;-16.274;2023-08-17T07:29:27;14.55;;;4.68;;
34030;SDS011;20319;28.466;-16.274;2023-08-17T07:31:52;10.32;;;3.80;;
34030;SDS011;20319;28.466;-16.274;2023-08-17T07:34:19;8.93;;;3.45;;
34030;SDS011;20319;28.466;-16.274;2023-08-17T07:36:45;11.57;;;3.72;;
34030;SDS011;20319;28.466;-16.274;2023-08-17T07:39:11;16.73;;;4.40;;
34030;SDS011;20319;28.466;-16.274;2023-08-17T07:41:36;13.27;;;4.55;;
34030;SDS011;20319;28.466;-16.274;2023-08-17T07:44:02;14.07;;;4.00;;
34030;SDS011;20319;28.466;-16.274;2023-08-17T07:46:28;17.75;;;4.43;;
34030;SDS011;20319;28.466;-16.274;2023-08-17T07:48:53;14.88;;;4.38;;
34030;SDS011;20319;28.466;-16.274;2023-08-17T07:51:19;16.67;;;4.43;;
34030;SDS011;20319;28.466;-16.274;2023-08-17T07:53:45;15.13;;;3.70;;
34030;SDS011;20319;28.466;-16.274;2023-08-17T07:56:10;15.45;;;8.45;;
34030;SDS011;20319;28.466;-16.274;2023-08-17T07:58:36;14.07;;;5.60;;
34030;SDS011;20319;28.466;-16.274;2023-08-17T08:01:02;16.77;;;4.18;;
34030;SDS011;20319;28.466;-16.274;2023-08-17T08:03:27;12.15;;;3.67;;
34030;SDS011;20319;28.466;-16.274;2023-08-17T08:05:53;8.93;;;3.38;;
34030;SDS011;20319;28.466;-16.274;2023-08-17T08:08:19;12.32;;;4.00;;
34030;SDS011;20319;28.466;-16.274;2023-08-17T08:10:45;15.20;;;4.50;;
34030;SDS011;20319;28.466;-16.274;2023-08-17T08:13:11;16.10;;;4.28;;
34030;SDS011;20319;28.466;-16.274;2023-08-17T08:15:36;17.05;;;4.13;;
34030;SDS011;20319;28.466;-16.274;2023-08-17T08:18:02;17.80;;;4.55;;
34030;SDS011;20319;28.466;-16.274;2023-08-17T08:20:28;11.63;;;4.07;;
34030;SDS011;20319;28.466;-16.274;2023-08-17T08:22:54;10.10;;;4.07;;
34030;SDS011;20319;28.466;-16.274;2023-08-17T08:25:19;11.00;;;4.13;;
34030;SDS011;20319;28.466;-16.274;2023-08-17T08:27:45;13.23;;;4.22;;
34030;SDS011;20319;28.466;-16.274;2023-08-17T08:30:10;12.68;;;4.18;;
34030;SDS011;20319;28.466;-16.274;2023-08-17T08:32:36;13.52;;;4.53;;
34030;SDS011;20319;28.466;-16.274;2023-08-17T08:35:02;18.08;;;4.38;;
34030;SDS011;20319;28.466;-16.274;2023-08-17T08:37:28;26.80;;;15.65;;
34030;SDS011;20319;28.466;-16.274;2023-08-17T08:39:54;12.85;;;5.75;;
34030;SDS011;20319;28.466;-16.274;2023-08-17T08:42:20;12.63;;;4.15;;
34030;SDS011;20319;28.466;-16.274;2023-08-17T08:44:48;12.77;;;4.30;;
34030;SDS011;20319;28.466;-16.274;2023-08-17T08:47:15;13.98;;;4.80;;
34030;SDS011;20319;28.466;-16.274;2023-08-17T08:50:04;22.80;;;6.68;;
34030;SDS011;20319;28.466;-16.274;2023-08-17T08:52:34;13.80;;;4.88;;
34030;SDS011;20319;28.466;-16.274;2023-08-17T08:55:10;12.70;;;5.35;;
34030;SDS011;20319;28.466;-16.274;2023-08-17T08:57:38;18.30;;;6.15;;
34030;SDS011;20319;28.466;-16.274;2023-08-17T09:00:05;16.85;;;6.72;;
34030;SDS011;20319;28.466;-16.274;2023-08-17T09:02:32;17.13;;;6.60;;
34030;SDS011;20319;28.466;-16.274;2023-08-17T09:04:59;23.13;;;7.40;;
34030;SDS011;20319;28.466;-16.274;2023-08-17T09:07:24;13.63;;;6.25;;
34030;SDS011;20319;28.466;-16.274;2023-08-17T09:09:54;12.18;;;6.75;;
34030;SDS011;20319;28.466;-16.274;2023-08-17T09:12:21;17.92;;;8.18;;
34030;SDS011;20319;28.466;-16.274;2023-08-17T09:14:47;16.67;;;7.30;;
34030;SDS011;20319;28.466;-16.274;2023-08-17T09:17:13;15.90;;;7.15;;
34030;SDS011;20319;28.466;-16.274;2023-08-17T09:19:38;15.75;;;6.65;;
34030;SDS011;20319;28.466;-16.274;2023-08-17T09:22:04;16.23;;;6.57;;
34030;SDS011;20319;28.466;-16.274;2023-08-17T09:24:33;12.18;;;6.85;;
34030;SDS011;20319;28.466;-16.274;2023-08-17T09:27:00;15.25;;;6.50;;
34030;SDS011;20319;28.466;-16.274;2023-08-17T09:29:26;15.10;;;6.28;;
34030;SDS011;20319;28.466;-16.274;2023-08-17T09:31:51;17.73;;;6.18;;
34030;SDS011;20319;28.466;-16.274;2023-08-17T09:34:17;13.48;;;6.53;;
34030;SDS011;20319;28.466;-16.274;2023-08-17T09:36:46;13.32;;;6.28;;
34030;SDS011;20319;28.466;-16.274;2023-08-17T09:39:12;15.18;;;6.78;;
34030;SDS011;20319;28.466;-16.274;2023-08-17T09:41:43;15.10;;;6.00;;
34030;SDS011;20319;28.466;-16.274;2023-08-17T09:44:09;14.23;;;6.90;;
34030;SDS011;20319;28.466;-16.274;2023-08-17T09:46:36;14.15;;;6.28;;
34030;SDS011;20319;28.466;-16.274;2023-08-17T09:49:02;15.02;;;6.43;;
34030;SDS011;20319;28.466;-16.274;2023-08-17T09:51:31;17.23;;;7.30;;
34030;SDS011;20319;28.466;-16.274;2023-08-17T09:53:57;17.88;;;7.13;;
34030;SDS011;20319;28.466;-16.274;2023-08-17T09:56:23;16.38;;;7.47;;
34030;SDS011;20319;28.466;-16.274;2023-08-17T09:58:49;18.73;;;7.55;;
34030;SDS011;20319;28.466;-16.274;2023-08-17T10:01:15;16.00;;;7.13;;
34030;SDS011;20319;28.466;-16.274;2023-08-17T10:03:43;18.25;;;7.70;;
34030;SDS011;20319;28.466;-16.274;2023-08-17T10:06:16;17.45;;;8.82;;
34030;SDS011;20319;28.466;-16.274;2023-08-17T10:08:47;14.75;;;7.38;;
34030;SDS011;20319;28.466;-16.274;2023-08-17T10:11:16;18.35;;;5.70;;
34030;SDS011;20319;28.466;-16.274;2023-08-17T10:16:23;14.05;;;4.68;;
34030;SDS011;20319;28.466;-16.274;2023-08-17T10:21:50;13.43;;;4.45;;
34030;SDS011;20319;28.466;-16.274;2023-08-17T10:24:21;16.83;;;4.13;;
34030;SDS011;20319;28.466;-16.274;2023-08-17T10:26:48;14.95;;;4.05;;
34030;SDS011;20319;28.466;-16.274;2023-08-17T10:29:15;14.10;;;3.97;;
34030;SDS011;20319;28.466;-16.274;2023-08-17T10:31:43;16.42;;;3.90;;
34030;SDS011;20319;28.466;-16.274;2023-08-17T10:34:13;11.25;;;3.55;;
34030;SDS011;20319;28.466;-16.274;2023-08-17T10:36:39;8.90;;;3.55;;
34030;SDS011;20319;28.466;-16.274;2023-08-17T10:39:21;10.95;;;3.65;;
34030;SDS011;20319;28.466;-16.274;2023-08-17T10:41:48;10.43;;;3.20;;
34030;SDS011;20319;28.466;-16.274;2023-08-17T10:44:15;11.88;;;3.65;;
34030;SDS011;20319;28.466;-16.274;2023-08-17T10:46:42;14.63;;;4.95;;
34030;SDS011;20319;28.466;-16.274;2023-08-17T10:49:26;14.73;;;3.42;;
34030;SDS011;20319;28.466;-16.274;2023-08-17T10:52:02;15.15;;;3.90;;
34030;SDS011;20319;28.466;-16.274;2023-08-17T10:54:38;11.80;;;3.10;;
34030;SDS011;20319;28.466;-16.274;2023-08-17T11:03:01;11.10;;;3.88;;
34030;SDS011;20319;28.466;-16.274;2023-08-17T11:08:02;9.55;;;3.00;;
34030;SDS011;20319;28.466;-16.274;2023-08-17T11:10:29;14.15;;;3.10;;
34030;SDS011;20319;28.466;-16.274;2023-08-17T11:12:55;9.40;;;3.17;;
34030;SDS011;20319;28.466;-16.274;2023-08-17T11:15:58;14.18;;;3.28;;
34030;SDS011;20319;28.466;-16.274;2023-08-17T11:18:16;10.27;;;2.90;;
34030;SDS011;20319;28.466;-16.274;2023-08-17T11:20:42;10.88;;;3.17;;
34030;SDS011;20319;28.466;-16.274;2023-08-17T11:23:08;14.57;;;6.00;;
34030;SDS011;20319;28.466;-16.274;2023-08-17T11:25:35;10.63;;;4.03;;
34030;SDS011;20319;28.466;-16.274;2023-08-17T11:28:02;12.95;;;3.28;;
34030;SDS011;20319;28.466;-16.274;2023-08-17T11:30:28;11.38;;;3.25;;
34030;SDS011;20319;28.466;-16.274;2023-08-17T11:32:55;11.55;;;3.15;;
34030;SDS011;20319;28.466;-16.274;2023-08-17T11:35:21;12.70;;;3.35;;
34030;SDS011;20319;28.466;-16.274;2023-08-17T11:37:47;10.70;;;2.83;;
34030;SDS011;20319;28.466;-16.274;2023-08-17T11:40:14;14.07;;;3.30;;
34030;SDS011;20319;28.466;-16.274;2023-08-17T11:42:40;13.35;;;3.03;;
34030;SDS011;20319;28.466;-16.274;2023-08-17T11:45:06;12.88;;;3.70;;
34030;SDS011;20319;28.466;-16.274;2023-08-17T11:47:35;10.90;;;2.97;;
34030;SDS011;20319;28.466;-16.274;2023-08-17T11:50:02;10.70;;;2.90;;
34030;SDS011;20319;28.466;-16.274;2023-08-17T11:52:30;9.85;;;2.75;;
34030;SDS011;20319;28.466;-16.274;2023-08-17T11:55:01;13.93;;;3.15;;
34030;SDS011;20319;28.466;-16.274;2023-08-17T11:57:27;10.85;;;3.28;;
34030;SDS011;20319;28.466;-16.274;2023-08-17T11:59:53;13.90;;;3.10;;
34030;SDS011;20319;28.466;-16.274;2023-08-17T12:02:22;13.07;;;3.63;;
34030;SDS011;20319;28.466;-16.274;2023-08-17T12:04:49;13.60;;;3.30;;
34030;SDS011;20319;28.466;-16.274;2023-08-17T12:07:15;15.38;;;3.55;;
34030;SDS011;20319;28.466;-16.274;2023-08-17T12:09:42;9.85;;;2.95;;
34030;SDS011;20319;28.466;-16.274;2023-08-17T12:12:09;11.88;;;2.72;;
34030;SDS011;20319;28.466;-16.274;2023-08-17T12:14:36;12.43;;;2.97;;
34030;SDS011;20319;28.466;-16.274;2023-08-17T12:17:02;11.57;;;3.03;;
34030;SDS011;20319;28.466;-16.274;2023-08-17T12:19:29;10.38;;;3.00;;
34030;SDS011;20319;28.466;-16.274;2023-08-17T12:21:56;12.10;;;2.95;;
34030;SDS011;20319;28.466;-16.274;2023-08-17T12:24:25;13.40;;;2.70;;
34030;SDS011;20319;28.466;-16.274;2023-08-17T12:26:52;12.90;;;3.08;;
34030;SDS011;20319;28.466;-16.274;2023-08-17T12:29:21;17.15;;;3.13;;
34030;SDS011;20319;28.466;-16.274;2023-08-17T12:31:47;10.68;;;2.90;;
34030;SDS011;20319;28.466;-16.274;2023-08-17T12:34:13;11.18;;;2.92;;
34030;SDS011;20319;28.466;-16.274;2023-08-17T12:36:38;11.50;;;2.80;;
34030;SDS011;20319;28.466;-16.274;2023-08-17T12:39:07;10.07;;;3.17;;
34030;SDS011;20319;28.466;-16.274;2023-08-17T12:41:33;8.88;;;3.08;;
34030;SDS011;20319;28.466;-16.274;2023-08-17T12:43:58;12.02;;;3.25;;
34030;SDS011;20319;28.466;-16.274;2023-08-17T12:46:24;10.07;;;2.92;;
34030;SDS011;20319;28.466;-16.274;2023-08-17T12:48:50;11.70;;;3.30;;
34030;SDS011;20319;28.466;-16.274;2023-08-17T12:51:16;10.77;;;2.65;;
34030;SDS011;20319;28.466;-16.274;2023-08-17T12:53:42;13.15;;;2.92;;
34030;SDS011;20319;28.466;-16.274;2023-08-17T12:56:07;11.70;;;2.80;;
34030;SDS011;20319;28.466;-16.274;2023-08-17T12:58:33;9.88;;;2.78;;
34030;SDS011;20319;28.466;-16.274;2023-08-17T13:00:59;11.10;;;3.05;;
34030;SDS011;20319;28.466;-16.274;2023-08-17T13:03:25;12.05;;;2.88;;
34030;SDS011;20319;28.466;-16.274;2023-08-17T13:05:51;10.85;;;2.95;;
34030;SDS011;20319;28.466;-16.274;2023-08-17T13:08:16;12.05;;;3.20;;
34030;SDS011;20319;28.466;-16.274;2023-08-17T13:10:42;9.35;;;3.20;;
34030;SDS011;20319;28.466;-16.274;2023-08-17T13:13:08;9.13;;;2.50;;
34030;SDS011;20319;28.466;-16.274;2023-08-17T13:15:33;10.15;;;2.75;;
34030;SDS011;20319;28.466;-16.274;2023-08-17T13:17:59;16.10;;;3.42;;
34030;SDS011;20319;28.466;-16.274;2023-08-17T13:20:25;11.93;;;3.53;;
34030;SDS011;20319;28.466;-16.274;2023-08-17T13:22:50;10.90;;;3.28;;
34030;SDS011;20319;28.466;-16.274;2023-08-17T13:25:16;11.13;;;2.88;;
34030;SDS011;20319;28.466;-16.274;2023-08-17T13:27:42;12.52;;;3.28;;
34030;SDS011;20319;28.466;-16.274;2023-08-17T13:30:08;6.45;;;2.50;;
34030;SDS011;20319;28.466;-16.274;2023-08-17T13:32:34;11.20;;;3.00;;
34030;SDS011;20319;28.466;-16.274;2023-08-17T13:35:01;11.98;;;2.45;;
34030;SDS011;20319;28.466;-16.274;2023-08-17T13:37:27;9.32;;;2.42;;
34030;SDS011;20319;28.466;-16.274;2023-08-17T13:39:53;18.70;;;3.60;;
34030;SDS011;20319;28.466;-16.274;2023-08-17T13:42:19;12.38;;;3.20;;
34030;SDS011;20319;28.466;-16.274;2023-08-17T13:44:45;7.63;;;2.60;;
34030;SDS011;20319;28.466;-16.274;2023-08-17T13:47:11;9.13;;;2.60;;
34030;SDS011;20319;28.466;-16.274;2023-08-17T13:49:37;9.88;;;2.92;;
34030;SDS011;20319;28.466;-16.274;2023-08-17T13:52:03;6.60;;;2.67;;
34030;SDS011;20319;28.466;-16.274;2023-08-17T13:54:29;9.63;;;2.80;;
34030;SDS011;20319;28.466;-16.274;2023-08-17T13:56:54;13.80;;;3.08;;
34030;SDS011;20319;28.466;-16.274;2023-08-17T13:59:20;12.40;;;2.95;;
34030;SDS011;20319;28.466;-16.274;2023-08-17T14:01:46;8.25;;;2.85;;
34030;SDS011;20319;28.466;-16.274;2023-08-17T14:04:12;11.77;;;3.15;;
34030;SDS011;20319;28.466;-16.274;2023-08-17T14:06:39;10.77;;;3.00;;
34030;SDS011;20319;28.466;-16.274;2023-08-17T14:09:05;10.63;;;2.67;;
34030;SDS011;20319;28.466;-16.274;2023-08-17T14:11:31;8.73;;;2.42;;
34030;SDS011;20319;28.466;-16.274;2023-08-17T14:13:56;10.15;;;2.50;;
34030;SDS011;20319;28.466;-16.274;2023-08-17T14:16:22;8.07;;;2.80;;
34030;SDS011;20319;28.466;-16.274;2023-08-17T14:18:48;12.20;;;3.38;;
34030;SDS011;20319;28.466;-16.274;2023-08-17T14:21:13;36.65;;;4.47;;
34030;SDS011;20319;28.466;-16.274;2023-08-17T14:23:39;11.43;;;2.83;;
34030;SDS011;20319;28.466;-16.274;2023-08-17T14:26:05;11.88;;;3.15;;